Time;durP1;ratioP1;P1;durP2;ratioP2;P2;SDS_P1;SDS_P2;PMS_P1;PMS_P2;Temp;Humidity;BMP_temperature;BMP_pressure;BME280_temperature;BME280_humidity;BME280_pressure;Samples;Min_cycle;Max_cycle;Signal;HPM_P1;HPM_P2
2023/02/03 00:00:14;;;;;;;0.40;0.40;;;3.30;83.20;;;;;;5065320;28;20215;-77
2023/02/03 00:02:40;;;;;;;0.37;0.37;;;3.20;83.60;;;;;;5073879;28;20930;-77
2023/02/03 00:05:06;;;;;;;0.30;0.30;;;3.10;84.10;;;;;;5046190;28;20182;-77
2023/02/03 00:07:33;;;;;;;0.53;0.53;;;3.10;84.40;;;;;;5073226;28;20190;-77
2023/02/03 00:09:59;;;;;;;0.77;0.40;;;3.10;84.80;;;;;;5050114;28;20187;-77
2023/02/03 00:12:25;;;;;;;0.43;0.40;;;3.00;85.30;;;;;;5054638;28;20186;-77
2023/02/03 00:14:50;;;;;;;0.47;0.37;;;3.00;85.50;;;;;;5074732;28;20185;-76
2023/02/03 00:17:16;;;;;;;0.50;0.47;;;2.90;86.00;;;;;;5066796;28;20186;-76
2023/02/03 00:19:41;;;;;;;0.60;0.60;;;2.90;86.20;;;;;;5070181;28;20258;-77
2023/02/03 00:22:07;;;;;;;0.30;0.30;;;2.90;86.40;;;;;;5065029;28;20279;-77
2023/02/03 00:24:33;;;;;;;0.40;0.37;;;2.80;86.70;;;;;;5077683;28;20182;-77
2023/02/03 00:26:58;;;;;;;0.80;0.23;;;2.80;86.80;;;;;;5079469;28;20186;-77
2023/02/03 00:29:24;;;;;;;0.30;0.30;;;2.70;87.50;;;;;;5074187;28;20190;-77
2023/02/03 00:31:52;;;;;;;0.40;0.40;;;2.70;87.70;;;;;;5046941;28;20269;-77
2023/02/03 00:34:18;;;;;;;0.40;0.40;;;2.70;88.10;;;;;;5069192;28;20686;-77
2023/02/03 00:36:46;;;;;;;0.47;0.47;;;2.70;88.30;;;;;;5048553;28;20183;-77
2023/02/03 00:39:13;;;;;;;0.70;0.50;;;2.70;88.50;;;;;;5080468;28;20286;-77
2023/02/03 00:41:39;;;;;;;0.33;0.33;;;2.70;88.70;;;;;;5049111;28;20207;-78
2023/02/03 00:44:05;;;;;;;0.50;0.50;;;2.60;88.80;;;;;;5076889;28;20270;-77
2023/02/03 00:46:31;;;;;;;0.30;0.30;;;2.60;89.00;;;;;;5065485;28;20190;-77
2023/02/03 00:48:56;;;;;;;0.40;0.40;;;2.70;89.00;;;;;;5065601;28;20213;-77
2023/02/03 00:51:22;;;;;;;0.47;0.47;;;2.70;89.00;;;;;;5065017;28;20218;-76
2023/02/03 00:53:48;;;;;;;0.40;0.40;;;2.60;89.10;;;;;;5064787;28;20179;-76
2023/02/03 00:56:14;;;;;;;0.30;0.30;;;2.60;89.20;;;;;;5075682;28;20182;-76
2023/02/03 00:58:40;;;;;;;0.40;0.40;;;2.60;89.40;;;;;;5080407;28;20197;-77
2023/02/03 01:01:06;;;;;;;0.50;0.50;;;2.60;89.30;;;;;;5072208;28;20289;-75
2023/02/03 01:03:32;;;;;;;0.30;0.30;;;2.60;89.30;;;;;;5068447;28;20213;-76
2023/02/03 01:06:15;;;;;;;0.30;0.30;;;2.60;89.40;;;;;;5070806;28;20218;-77
2023/02/03 01:08:43;;;;;;;0.70;0.50;;;2.60;89.50;;;;;;5070736;28;20201;-76
2023/02/03 01:11:11;;;;;;;0.33;0.33;;;2.60;90.00;;;;;;5079730;28;20198;-75
2023/02/03 01:13:37;;;;;;;0.40;0.40;;;2.60;90.20;;;;;;5065160;28;20260;-76
2023/02/03 01:16:06;;;;;;;0.50;0.50;;;2.60;90.50;;;;;;5064648;28;20289;-76
2023/02/03 01:18:32;;;;;;;2.30;0.50;;;2.50;90.40;;;;;;5045983;28;20740;-76
2023/02/03 01:21:03;;;;;;;5.20;0.50;;;2.50;90.40;;;;;;5063844;28;20294;-76
2023/02/03 01:23:28;;;;;;;0.30;0.30;;;2.40;90.10;;;;;;5044593;28;20236;-76
2023/02/03 01:25:54;;;;;;;0.20;0.20;;;2.40;89.70;;;;;;5075556;28;20178;-76
2023/02/03 01:28:20;;;;;;;0.20;0.20;;;2.40;89.50;;;;;;5063200;28;20183;-76
2023/02/03 01:30:45;;;;;;;0.43;0.43;;;2.40;89.70;;;;;;5079046;28;20987;-76
2023/02/03 01:33:11;;;;;;;0.27;0.27;;;2.30;89.70;;;;;;5059641;28;20182;-77
2023/02/03 01:35:36;;;;;;;0.10;0.10;;;2.30;89.60;;;;;;5060436;28;20187;-76
2023/02/03 01:38:02;;;;;;;0.20;0.20;;;2.30;89.30;;;;;;5065724;28;20177;-76
2023/02/03 01:40:28;;;;;;;3.60;0.30;;;2.20;89.50;;;;;;5069642;28;20206;-76
2023/02/03 01:42:53;;;;;;;0.30;0.30;;;2.20;89.30;;;;;;5053636;28;20794;-76
2023/02/03 01:45:19;;;;;;;0.30;0.30;;;2.20;89.30;;;;;;5075392;28;20678;-76
2023/02/03 01:47:47;;;;;;;0.40;0.40;;;2.20;89.30;;;;;;5071430;28;20186;-77
2023/02/03 01:50:25;;;;;;;0.10;0.10;;;2.20;89.40;;;;;;5063824;28;20238;-77
2023/02/03 01:52:56;;;;;;;0.10;0.10;;;2.20;89.40;;;;;;5067760;28;20261;-77
2023/02/03 01:55:26;;;;;;;0.20;0.20;;;2.20;89.40;;;;;;5064582;28;20185;-76
2023/02/03 01:58:19;;;;;;;0.27;0.27;;;2.20;89.30;;;;;;5078890;28;20186;-77
2023/02/03 02:00:46;;;;;;;0.10;0.10;;;2.20;89.30;;;;;;5079528;28;20202;-77
2023/02/03 02:03:12;;;;;;;0.20;0.20;;;2.20;89.30;;;;;;5050837;28;20211;-76
2023/02/03 02:05:41;;;;;;;0.27;0.10;;;2.20;89.10;;;;;;5045054;28;20175;-76
2023/02/03 02:08:08;;;;;;;0.20;0.20;;;2.20;89.10;;;;;;5070560;28;20190;-76
2023/02/03 02:10:34;;;;;;;0.23;0.23;;;2.20;88.90;;;;;;5050403;28;20179;-76
2023/02/03 02:13:02;;;;;;;1.90;0.20;;;2.20;88.90;;;;;;5063935;28;20267;-77
2023/02/03 02:15:45;;;;;;;0.17;0.17;;;2.20;88.90;;;;;;5055545;28;20573;-78
2023/02/03 02:18:16;;;;;;;0.23;0.20;;;2.30;88.70;;;;;;5067329;28;20194;-77
2023/02/03 02:21:11;;;;;;;0.20;0.20;;;2.30;88.40;;;;;;5063518;28;20211;-77
2023/02/03 02:23:58;;;;;;;0.20;0.20;;;2.30;88.40;;;;;;5064791;28;20198;-77
2023/02/03 02:26:52;;;;;;;0.20;0.20;;;2.30;88.20;;;;;;5067377;28;20178;-77
2023/02/03 02:29:24;;;;;;;0.63;0.30;;;2.30;88.00;;;;;;5065188;28;20175;-76
2023/02/03 02:32:08;;;;;;;0.33;0.33;;;2.20;88.30;;;;;;5073277;28;20185;-76
2023/02/03 02:34:55;;;;;;;0.20;0.20;;;2.20;88.30;;;;;;5060789;28;20182;-75
2023/02/03 02:37:47;;;;;;;0.20;0.20;;;2.20;88.40;;;;;;5057299;28;20221;-75
2023/02/03 02:40:32;;;;;;;0.20;0.20;;;2.20;88.30;;;;;;5065699;28;20325;-75
2023/02/03 02:43:17;;;;;;;0.20;0.20;;;2.20;88.30;;;;;;5070444;28;20182;-77
2023/02/03 02:45:53;;;;;;;0.33;0.33;;;2.20;88.30;;;;;;5069490;28;20268;-76
2023/02/03 02:48:25;;;;;;;0.20;0.20;;;2.10;88.30;;;;;;5066178;28;20603;-76
2023/02/03 02:50:54;;;;;;;0.30;0.30;;;2.10;88.00;;;;;;5066851;28;20183;-77
2023/02/03 02:53:23;;;;;;;0.30;0.30;;;2.10;87.90;;;;;;5067957;28;20186;-77
2023/02/03 02:55:52;;;;;;;0.10;0.10;;;2.10;87.80;;;;;;5066932;28;20940;-76
2023/02/03 02:58:20;;;;;;;0.20;0.20;;;2.20;87.90;;;;;;5080804;28;20186;-76
2023/02/03 03:00:47;;;;;;;0.67;0.30;;;2.20;87.60;;;;;;5077943;28;20206;-77
2023/02/03 03:03:15;;;;;;;0.20;0.20;;;2.20;87.50;;;;;;5058615;28;20290;-77
2023/02/03 03:05:43;;;;;;;0.30;0.30;;;2.20;87.20;;;;;;5080524;28;20183;-76
2023/02/03 03:08:12;;;;;;;0.20;0.20;;;2.20;87.00;;;;;;5067521;28;20270;-77
2023/02/03 03:10:40;;;;;;;0.20;0.20;;;2.20;86.60;;;;;;5073575;28;20190;-77
2023/02/03 03:13:11;;;;;;;0.20;0.20;;;2.10;86.30;;;;;;5072261;28;20252;-77
2023/02/03 03:15:38;;;;;;;0.60;0.33;;;2.10;86.10;;;;;;5066478;28;20224;-76
2023/02/03 03:18:13;;;;;;;0.93;0.40;;;2.10;85.90;;;;;;5071379;28;20222;-77
2023/02/03 03:20:43;;;;;;;0.10;0.10;;;2.10;85.90;;;;;;5062963;28;20719;-77
2023/02/03 03:23:17;;;;;;;0.40;0.40;;;2.10;85.90;;;;;;5079602;28;20179;-78
2023/02/03 03:25:47;;;;;;;0.53;0.20;;;2.10;85.80;;;;;;5061901;28;20569;-78
2023/02/03 03:28:29;;;;;;;0.20;0.20;;;2.10;85.50;;;;;;5066528;28;20195;-77
2023/02/03 03:30:55;;;;;;;0.10;0.10;;;2.10;85.30;;;;;;5071427;28;20182;-77
2023/02/03 03:33:21;;;;;;;0.20;0.20;;;2.00;85.20;;;;;;5069302;28;20189;-76
2023/02/03 03:36:06;;;;;;;1.43;0.50;;;2.00;85.20;;;;;;5066721;28;20569;-77
2023/02/03 03:38:42;;;;;;;0.20;0.20;;;1.90;85.10;;;;;;5067543;28;20260;-77
2023/02/03 03:41:22;;;;;;;0.20;0.20;;;1.90;85.30;;;;;;5059062;28;20267;-77
2023/02/03 03:43:49;;;;;;;0.20;0.20;;;1.80;85.30;;;;;;5071676;28;20202;-77
2023/02/03 03:46:30;;;;;;;0.30;0.30;;;1.90;85.40;;;;;;5068286;28;20692;-77
2023/02/03 03:49:02;;;;;;;0.20;0.20;;;1.80;85.30;;;;;;5063309;28;20577;-76
2023/02/03 03:51:43;;;;;;;0.20;0.20;;;1.80;85.60;;;;;;5067255;28;20672;-77
2023/02/03 03:54:13;;;;;;;0.10;0.10;;;1.80;85.80;;;;;;5065412;28;20191;-77
2023/02/03 03:56:55;;;;;;;0.20;0.20;;;1.80;85.60;;;;;;5065260;28;20175;-77
2023/02/03 03:59:23;;;;;;;0.10;0.10;;;1.80;86.10;;;;;;5065131;28;20220;-76
2023/02/03 04:01:50;;;;;;;0.20;0.20;;;1.80;85.90;;;;;;5068004;28;20203;-77
2023/02/03 04:04:17;;;;;;;0.17;0.17;;;1.80;85.90;;;;;;5067590;28;20981;-76
2023/02/03 04:06:42;;;;;;;0.20;0.20;;;1.70;86.00;;;;;;5047686;28;20202;-76
2023/02/03 04:09:08;;;;;;;0.10;0.10;;;1.70;86.00;;;;;;5066206;28;21028;-76
2023/02/03 04:14:18;;;;;;;0.20;0.20;;;1.70;86.20;;;;;;5071458;28;20636;-76
2023/02/03 04:16:43;;;;;;;0.13;0.13;;;1.70;86.20;;;;;;5069582;28;20179;-77
2023/02/03 04:19:09;;;;;;;0.37;0.37;;;1.70;86.20;;;;;;5047119;28;20852;-77
2023/02/03 04:21:35;;;;;;;0.20;0.20;;;1.70;86.20;;;;;;5065182;28;20253;-77
2023/02/03 04:24:00;;;;;;;0.27;0.27;;;1.70;86.20;;;;;;5073725;28;20715;-77
2023/02/03 04:26:26;;;;;;;0.30;0.30;;;1.70;86.30;;;;;;5072504;28;20703;-76
2023/02/03 04:28:52;;;;;;;0.30;0.30;;;1.80;86.20;;;;;;5070887;28;20178;-77
2023/02/03 04:31:17;;;;;;;0.30;0.30;;;1.80;86.00;;;;;;5071323;28;20183;-76
2023/02/03 04:33:43;;;;;;;0.30;0.30;;;1.80;86.10;;;;;;5047329;28;20187;-76
2023/02/03 04:36:09;;;;;;;0.10;0.10;;;1.80;86.10;;;;;;5069700;28;20175;-76
2023/02/03 04:38:34;;;;;;;0.23;0.23;;;1.80;86.10;;;;;;5071751;28;20183;-77
2023/02/03 04:41:00;;;;;;;2.73;0.57;;;1.80;86.10;;;;;;5068713;28;20213;-76
2023/02/03 04:43:26;;;;;;;0.30;0.30;;;1.80;86.20;;;;;;5063981;28;20240;-77
2023/02/03 04:45:51;;;;;;;0.50;0.23;;;1.80;86.20;;;;;;5074572;28;20171;-77
2023/02/03 04:48:17;;;;;;;0.70;0.40;;;1.80;86.10;;;;;;5072623;28;20183;-77
2023/02/03 04:50:43;;;;;;;0.40;0.30;;;1.80;86.30;;;;;;5061331;28;20193;-76
2023/02/03 04:53:09;;;;;;;0.20;0.20;;;1.80;86.20;;;;;;5056245;28;20306;-76
2023/02/03 04:55:34;;;;;;;0.20;0.20;;;1.80;86.10;;;;;;5064620;28;20857;-76
2023/02/03 04:58:00;;;;;;;0.20;0.20;;;1.90;85.90;;;;;;5066367;28;20744;-76
2023/02/03 05:00:27;;;;;;;0.50;0.50;;;1.90;86.00;;;;;;5069686;28;20202;-77
2023/02/03 05:02:53;;;;;;;0.20;0.20;;;1.90;85.80;;;;;;5068241;28;20194;-77
2023/02/03 05:05:19;;;;;;;0.33;0.33;;;1.90;85.80;;;;;;5045916;28;20182;-77
2023/02/03 05:07:44;;;;;;;0.30;0.30;;;1.90;85.90;;;;;;5068247;28;20285;-76
2023/02/03 05:10:11;;;;;;;0.40;0.40;;;1.90;85.90;;;;;;5046222;28;20217;-76
2023/02/03 05:12:36;;;;;;;0.20;0.20;;;2.00;85.70;;;;;;5069361;28;20233;-77
2023/02/03 05:15:02;;;;;;;0.20;0.20;;;2.00;85.60;;;;;;5064201;28;20247;-76
2023/02/03 05:17:28;;;;;;;0.10;0.10;;;2.00;85.40;;;;;;5066155;28;20178;-76
2023/02/03 05:19:53;;;;;;;0.13;0.13;;;1.90;85.60;;;;;;5063312;28;20312;-77
2023/02/03 05:22:19;;;;;;;0.20;0.20;;;2.00;85.70;;;;;;5064291;28;20247;-76
2023/02/03 05:24:45;;;;;;;0.40;0.40;;;2.00;85.70;;;;;;5048075;28;20183;-75
2023/02/03 05:27:10;;;;;;;0.20;0.20;;;2.00;85.60;;;;;;5069700;28;20625;-76
2023/02/03 05:29:36;;;;;;;0.30;0.30;;;2.00;85.50;;;;;;5065499;28;20175;-76
2023/02/03 05:32:02;;;;;;;0.30;0.30;;;1.90;85.60;;;;;;5051169;28;20951;-77
2023/02/03 05:34:27;;;;;;;0.20;0.20;;;1.90;85.70;;;;;;5063719;28;20171;-77
2023/02/03 05:36:53;;;;;;;0.10;0.10;;;1.90;85.80;;;;;;5052494;28;20270;-76
2023/02/03 05:39:19;;;;;;;0.30;0.30;;;1.90;85.70;;;;;;5063503;28;21805;-77
2023/02/03 05:41:53;;;;;;;0.20;0.20;;;1.80;85.60;;;;;;5045547;28;20657;-76
2023/02/03 05:44:20;;;;;;;0.30;0.30;;;1.80;85.90;;;;;;5063183;28;20182;-78
2023/02/03 05:46:47;;;;;;;0.20;0.20;;;1.80;86.00;;;;;;5072790;28;20763;-78
2023/02/03 05:49:12;;;;;;;0.20;0.20;;;1.80;86.00;;;;;;5066215;28;20715;-77
2023/02/03 05:51:38;;;;;;;0.40;0.40;;;1.70;86.20;;;;;;5065006;28;20217;-77
2023/02/03 05:54:05;;;;;;;0.30;0.30;;;1.70;86.30;;;;;;5073117;28;20187;-77
2023/02/03 05:56:30;;;;;;;0.20;0.20;;;1.70;86.50;;;;;;5062392;28;20239;-78
2023/02/03 05:58:56;;;;;;;0.73;0.40;;;1.70;86.50;;;;;;5063615;28;20183;-78
2023/02/03 06:01:22;;;;;;;0.20;0.20;;;1.70;86.60;;;;;;5063705;28;20743;-75
2023/02/03 06:03:48;;;;;;;0.63;0.47;;;1.60;86.60;;;;;;5068492;28;20299;-78
2023/02/03 06:06:14;;;;;;;0.43;0.30;;;1.60;86.60;;;;;;5063355;28;20217;-77
2023/02/03 06:08:40;;;;;;;0.20;0.20;;;1.60;86.60;;;;;;5065715;28;20288;-78
2023/02/03 06:11:06;;;;;;;0.20;0.20;;;1.60;86.50;;;;;;5064299;28;20227;-76
2023/02/03 06:13:32;;;;;;;2.43;0.60;;;1.60;86.50;;;;;;5063717;28;20324;-78
2023/02/03 06:15:58;;;;;;;0.20;0.20;;;1.60;86.50;;;;;;5063838;28;20183;-76
2023/02/03 06:18:24;;;;;;;0.10;0.10;;;;;;;;;;5067421;28;20186;-78
2023/02/03 06:20:50;;;;;;;0.20;0.20;;;1.70;86.20;;;;;;5072702;28;20206;-77
2023/02/03 06:23:18;;;;;;;0.40;0.33;;;1.70;86.10;;;;;;5067479;28;20233;-77
2023/02/03 06:25:48;;;;;;;0.20;0.20;;;1.70;85.90;;;;;;5067712;28;20631;-76
2023/02/03 06:28:13;;;;;;;0.23;0.23;;;1.70;85.80;;;;;;5067443;28;20201;-76
2023/02/03 06:30:39;;;;;;;0.13;0.13;;;1.70;85.60;;;;;;5070871;28;20186;-75
2023/02/03 06:33:05;;;;;;;0.23;0.23;;;1.80;85.40;;;;;;5067375;28;20186;-75
2023/02/03 06:35:30;;;;;;;0.10;0.10;;;1.80;85.30;;;;;;5069951;28;20900;-76
2023/02/03 06:37:56;;;;;;;0.40;0.40;;;1.80;85.00;;;;;;5065979;28;20545;-76
2023/02/03 06:40:22;;;;;;;0.10;0.10;;;1.80;84.80;;;;;;5077445;28;20205;-76
2023/02/03 06:42:48;;;;;;;0.10;0.10;;;2.00;84.00;;;;;;5053340;28;20236;-77
2023/02/03 06:45:14;;;;;;;0.20;0.20;;;2.10;83.90;;;;;;4993361;28;64135;-75
2023/02/03 06:47:41;;;;;;;0.20;0.20;;;2.20;83.20;;;;;;5000407;28;20219;-76
2023/02/03 06:50:08;;;;;;;0.20;0.20;;;2.30;83.00;;;;;;4998813;28;20212;-77
2023/02/03 06:52:33;;;;;;;0.30;0.30;;;2.30;83.10;;;;;;4999017;28;20201;-77
2023/02/03 06:54:59;;;;;;;0.20;0.20;;;2.50;82.50;;;;;;4998184;28;20219;-78
2023/02/03 06:57:25;;;;;;;0.40;0.40;;;2.60;82.10;;;;;;4998187;28;20275;-77
2023/02/03 06:59:50;;;;;;;0.63;0.40;;;2.80;81.50;;;;;;4998667;28;20214;-77
2023/02/03 07:02:16;;;;;;;0.93;0.40;;;2.90;80.50;;;;;;4997384;28;20209;-76
2023/02/03 07:04:43;;;;;;;0.30;0.30;;;3.10;80.50;;;;;;5029164;28;20208;-77
2023/02/03 07:07:11;;;;;;;0.47;0.47;;;3.30;79.30;;;;;;5000211;28;20201;-77
2023/02/03 07:09:37;;;;;;;3.13;0.60;;;3.60;79.50;;;;;;4995504;28;20596;-78
2023/02/03 07:12:03;;;;;;;0.47;0.47;;;3.90;78.00;;;;;;4997558;28;20205;-78
2023/02/03 07:14:29;;;;;;;0.30;0.30;;;4.20;77.30;;;;;;4996999;28;20298;-77
2023/02/03 07:16:55;;;;;;;0.30;0.30;;;4.40;76.80;;;;;;4995560;28;20200;-78
2023/02/03 07:19:21;;;;;;;1.13;0.37;;;4.80;76.00;;;;;;4996042;28;20602;-78
2023/02/03 07:21:47;;;;;;;0.50;0.50;;;5.00;74.70;;;;;;5002673;28;20228;-77
2023/02/03 07:24:13;;;;;;;0.50;0.47;;;5.30;74.20;;;;;;4996667;28;20205;-76
2023/02/03 07:26:38;;;;;;;0.70;0.70;;;5.60;72.90;;;;;;4995240;28;20200;-76
2023/02/03 07:29:04;;;;;;;1.17;1.07;;;5.80;72.60;;;;;;5003255;28;20204;-77
2023/02/03 07:31:30;;;;;;;0.80;0.80;;;6.10;72.30;;;;;;4994726;28;20344;-75
2023/02/03 07:33:56;;;;;;;0.80;0.80;;;6.30;71.20;;;;;;4996849;28;20201;-77
2023/02/03 07:36:23;;;;;;;0.30;0.30;;;6.50;70.80;;;;;;4996814;28;20204;-78
2023/02/03 07:38:49;;;;;;;0.53;0.53;;;6.70;70.00;;;;;;4994190;28;20199;-78
2023/02/03 07:41:14;;;;;;;0.53;0.53;;;6.70;69.90;;;;;;4993589;28;20652;-76
2023/02/03 07:43:40;;;;;;;0.57;0.57;;;6.80;69.80;;;;;;4993603;28;20259;-79
2023/02/03 07:46:06;;;;;;;0.83;0.83;;;6.90;69.40;;;;;;4993615;28;20215;-76
2023/02/03 07:48:32;;;;;;;0.53;0.53;;;7.00;69.30;;;;;;4992112;28;20477;-76
2023/02/03 07:50:57;;;;;;;0.40;0.40;;;7.20;68.80;;;;;;4993037;28;21107;-76
2023/02/03 07:53:23;;;;;;;0.60;0.50;;;7.50;68.90;;;;;;4993829;28;20212;-77
2023/02/03 07:55:49;;;;;;;0.50;0.50;;;7.80;67.10;;;;;;5005519;28;20201;-78
2023/02/03 07:58:15;;;;;;;0.50;0.50;;;8.00;67.30;;;;;;5001280;28;20290;-77
2023/02/03 08:00:41;;;;;;;0.38;0.38;;;8.30;66.30;;;;;;4997247;28;20216;-77
2023/02/03 08:03:07;;;;;;;0.63;0.63;;;8.60;66.00;;;;;;5004034;28;20219;-76
2023/02/03 08:05:33;;;;;;;0.70;0.60;;;8.90;65.00;;;;;;5001675;28;20286;-77
2023/02/03 08:07:58;;;;;;;0.60;0.60;;;8.90;64.50;;;;;;4997249;28;20203;-77
2023/02/03 08:10:24;;;;;;;1.50;0.68;;;9.00;64.70;;;;;;5004169;28;20659;-78
2023/02/03 08:12:54;;;;;;;2.92;0.60;;;9.30;64.50;;;;;;4997373;28;20209;-77
2023/02/03 08:15:19;;;;;;;0.88;0.50;;;9.40;64.70;;;;;;4998760;28;20205;-77
2023/02/03 08:17:45;;;;;;;1.00;0.75;;;9.50;63.70;;;;;;5010497;28;20224;-77
2023/02/03 08:20:11;;;;;;;0.45;0.45;;;9.60;63.60;;;;;;4994043;28;20225;-77
2023/02/03 08:22:37;;;;;;;1.52;0.75;;;9.60;63.20;;;;;;4993940;28;20348;-77
2023/02/03 08:25:03;;;;;;;0.60;0.60;;;9.70;63.00;;;;;;4988744;28;20980;-77
2023/02/03 08:27:30;;;;;;;0.57;0.57;;;9.70;63.30;;;;;;4990509;28;20205;-75
2023/02/03 08:29:56;;;;;;;0.63;0.63;;;9.70;62.80;;;;;;4991437;28;20201;-77
2023/02/03 08:32:22;;;;;;;0.70;0.70;;;9.60;63.10;;;;;;5000600;28;20291;-76
2023/02/03 08:34:48;;;;;;;1.52;0.47;;;9.60;62.60;;;;;;4995200;28;21418;-77
2023/02/03 08:37:15;;;;;;;0.65;0.65;;;9.50;62.50;;;;;;5002008;28;20327;-77
2023/02/03 08:39:41;;;;;;;0.73;0.73;;;9.70;62.90;;;;;;4995972;28;20211;-78
2023/02/03 08:42:08;;;;;;;0.77;0.77;;;10.20;63.40;;;;;;5000447;28;20229;-77
2023/02/03 08:44:34;;;;;;;1.27;1.27;;;10.60;61.90;;;;;;5005843;28;20200;-77
2023/02/03 08:47:01;;;;;;;1.00;1.00;;;10.70;60.20;;;;;;4994431;28;20274;-76
2023/02/03 08:49:28;;;;;;;0.82;0.82;;;10.40;60.40;;;;;;4993906;28;20229;-77
2023/02/03 08:51:55;;;;;;;0.65;0.40;;;10.20;60.60;;;;;;4997869;28;20243;-76
2023/02/03 08:54:21;;;;;;;0.57;0.57;;;10.20;61.10;;;;;;4995539;28;20572;-77
2023/02/03 08:56:47;;;;;;;0.55;0.55;;;9.90;60.70;;;;;;4995025;28;20279;-76
2023/02/03 08:59:14;;;;;;;0.93;0.52;;;9.60;61.70;;;;;;4997914;28;20722;-77
2023/02/03 09:01:43;;;;;;;0.60;0.60;;;9.30;62.40;;;;;;4995554;28;20298;-77
2023/02/03 09:04:09;;;;;;;0.47;0.47;;;9.10;62.70;;;;;;4996389;28;20205;-77
2023/02/03 09:06:35;;;;;;;0.40;0.40;;;8.60;63.50;;;;;;4995972;28;20295;-77
2023/02/03 09:09:01;;;;;;;0.50;0.50;;;8.20;64.20;;;;;;4995275;28;20216;-76
2023/02/03 09:11:27;;;;;;;0.60;0.60;;;7.80;65.20;;;;;;4993535;28;20204;-76
2023/02/03 09:13:53;;;;;;;0.60;0.60;;;7.30;66.50;;;;;;4999393;28;20287;-77
2023/02/03 09:16:21;;;;;;;0.40;0.40;;;7.00;67.10;;;;;;4998328;28;20219;-77
2023/02/03 09:18:47;;;;;;;0.93;0.40;;;7.00;67.30;;;;;;4990778;28;20204;-77
2023/02/03 09:21:17;;;;;;;0.60;0.60;;;6.80;67.60;;;;;;5029041;28;20236;-76
2023/02/03 09:23:43;;;;;;;0.45;0.45;;;6.40;68.70;;;;;;4994182;28;20266;-77
2023/02/03 09:26:13;;;;;;;1.33;0.50;;;6.30;69.90;;;;;;4990176;28;20250;-76
2023/02/03 09:28:40;;;;;;;0.67;0.67;;;6.70;69.60;;;;;;4992327;28;20683;-75
2023/02/03 09:31:14;;;;;;;0.40;0.40;;;7.10;67.90;;;;;;4987630;28;20282;-75
2023/02/03 09:33:40;;;;;;;1.13;0.65;;;7.40;67.80;;;;;;4996158;28;20241;-77
2023/02/03 09:36:07;;;;;;;0.40;0.40;;;7.90;66.70;;;;;;4996108;28;20212;-77
2023/02/03 09:38:35;;;;;;;0.60;0.60;;;7.80;65.30;;;;;;4990876;28;20854;-76
2023/02/03 09:41:33;;;;;;;0.50;0.50;;;8.00;65.70;;;;;;4988452;28;20262;-77
2023/02/03 09:43:59;;;;;;;0.40;0.40;;;8.40;65.20;;;;;;4990023;28;20215;-77
2023/02/03 09:46:27;;;;;;;0.50;0.50;;;8.90;64.60;;;;;;4992425;28;20209;-76
2023/02/03 09:49:03;;;;;;;0.40;0.40;;;9.20;63.40;;;;;;4993255;28;20248;-77
2023/02/03 09:51:39;;;;;;;0.30;0.30;;;8.70;61.70;;;;;;4990606;28;20200;-77
2023/02/03 09:54:46;;;;;;;0.75;0.75;;;8.30;62.60;;;;;;4991885;28;20226;-77
2023/02/03 09:57:26;;;;;;;0.57;0.57;;;8.60;62.80;;;;;;4993206;28;20275;-77
2023/02/03 09:59:56;;;;;;;0.75;0.75;;;9.20;62.40;;;;;;4996651;28;20978;-77
2023/02/03 10:02:31;;;;;;;0.30;0.30;;;9.50;61.00;;;;;;4999198;28;20232;-77
2023/02/03 10:05:20;;;;;;;0.32;0.32;;;9.60;60.80;;;;;;4999140;28;20207;-79
2023/02/03 10:08:01;;;;;;;0.50;0.50;;;10.00;60.80;;;;;;4996857;28;20956;-79
2023/02/03 10:10:48;;;;;;;0.50;0.50;;;10.10;59.10;;;;;;4989850;28;20682;-78
2023/02/03 10:13:29;;;;;;;1.77;0.55;;;10.10;59.00;;;;;;4990310;28;20201;-79
2023/02/03 10:16:10;;;;;;;0.60;0.60;;;9.80;59.10;;;;;;4997735;28;20234;-77
2023/02/03 10:18:41;;;;;;;0.68;0.68;;;9.50;59.70;;;;;;4998516;28;20361;-81
2023/02/03 10:21:37;;;;;;;0.40;0.40;;;8.90;60.40;;;;;;4997160;28;20627;-77
2023/02/03 10:24:09;;;;;;;0.80;0.80;;;8.20;62.10;;;;;;4994586;28;20227;-81
2023/02/03 10:26:38;;;;;;;0.47;0.47;;;8.10;63.40;;;;;;4992260;28;20657;-79
2023/02/03 10:29:16;;;;;;;0.70;0.70;;;8.20;63.80;;;;;;5005924;28;20591;-80
2023/02/03 10:31:42;;;;;;;0.35;0.35;;;8.20;62.80;;;;;;4992174;28;21728;-78
2023/02/03 10:34:14;;;;;;;0.50;0.50;;;7.90;61.20;;;;;;4993348;28;20229;-79
2023/02/03 10:36:39;;;;;;;0.40;0.40;;;7.30;61.70;;;;;;4992591;28;20196;-80
2023/02/03 10:39:21;;;;;;;0.40;0.40;;;6.90;62.50;;;;;;4992510;28;20212;-80
2023/02/03 10:41:47;;;;;;;1.55;0.40;;;6.70;63.30;;;;;;4991015;28;20275;-79
2023/02/03 10:44:14;;;;;;;0.40;0.40;;;6.50;63.70;;;;;;5000324;28;20209;-80
2023/02/03 10:46:42;;;;;;;0.67;0.40;;;6.30;64.90;;;;;;4999529;28;20375;-78
2023/02/03 10:49:10;;;;;;;0.53;0.53;;;6.10;65.70;;;;;;4999978;28;20231;-79
2023/02/03 10:51:39;;;;;;;0.63;0.63;;;5.90;66.20;;;;;;4996280;28;20702;-79
2023/02/03 10:54:26;;;;;;;0.40;0.40;;;5.70;65.60;;;;;;4989330;28;20209;-80
2023/02/03 10:56:53;;;;;;;0.40;0.40;;;5.50;66.10;;;;;;4990636;28;20591;-79
2023/02/03 10:59:35;;;;;;;0.53;0.40;;;5.40;66.50;;;;;;4995160;28;20216;-78
2023/02/03 11:02:19;;;;;;;0.30;0.30;;;5.40;65.60;;;;;;4999208;28;20854;-79
2023/02/03 11:04:45;;;;;;;0.50;0.50;;;5.30;65.20;;;;;;4998260;28;20603;-79
2023/02/03 11:07:25;;;;;;;0.60;0.60;;;5.20;64.80;;;;;;5005044;28;20231;-80
2023/02/03 11:09:51;;;;;;;0.40;0.30;;;5.20;65.30;;;;;;4990671;28;20200;-79
2023/02/03 11:12:20;;;;;;;0.40;0.40;;;5.10;65.30;;;;;;4994577;28;20204;-79
2023/02/03 11:14:51;;;;;;;0.60;0.60;;;5.10;65.30;;;;;;5000854;28;20284;-79
2023/02/03 11:17:21;;;;;;;0.43;0.43;;;5.20;65.70;;;;;;4993037;28;20215;-78
2023/02/03 11:19:49;;;;;;;0.30;0.30;;;5.20;65.70;;;;;;5002817;28;20383;-79
2023/02/03 11:22:29;;;;;;;0.60;0.60;;;5.20;65.40;;;;;;4995619;28;20224;-79
2023/02/03 11:24:55;;;;;;;0.43;0.30;;;5.10;65.60;;;;;;4999443;28;20235;-78
2023/02/03 11:27:22;;;;;;;0.20;0.20;;;5.20;66.10;;;;;;4997566;28;20218;-78
2023/02/03 11:29:53;;;;;;;0.50;0.43;;;5.80;65.80;;;;;;4995382;28;20197;-80
2023/02/03 11:32:21;;;;;;;0.30;0.30;;;6.10;64.50;;;;;;5003378;28;20223;-77
2023/02/03 11:34:57;;;;;;;0.30;0.30;;;6.50;63.00;;;;;;5019845;28;20732;-78
2023/02/03 11:37:35;;;;;;;1.60;0.40;;;7.10;62.20;;;;;;4989148;28;20208;-79
2023/02/03 11:40:07;;;;;;;0.65;0.45;;;7.80;61.50;;;;;;4990718;28;20204;-78
2023/02/03 11:42:35;;;;;;;0.30;0.30;;;8.80;60.00;;;;;;4991747;28;20635;-79
2023/02/03 11:45:37;;;;;;;0.30;0.30;;;9.50;57.60;;;;;;4999839;28;20235;-78
2023/02/03 11:48:34;;;;;;;0.60;0.60;;;10.10;56.30;;;;;;4993075;28;20198;-79
2023/02/03 11:51:24;;;;;;;0.60;0.60;;;9.80;55.20;;;;;;4996089;28;20686;-79
2023/02/03 11:54:13;;;;;;;0.45;0.40;;;9.30;56.00;;;;;;4997678;28;20311;-79
2023/02/03 11:57:00;;;;;;;0.50;0.50;;;8.90;55.40;;;;;;4992737;28;20205;-79
2023/02/03 11:59:49;;;;;;;0.40;0.40;;;9.20;56.10;;;;;;4993338;28;20216;-79
2023/02/03 12:02:53;;;;;;;0.30;0.30;;;9.80;56.10;;;;;;5021286;28;20224;-78
2023/02/03 12:05:24;;;;;;;0.40;0.40;;;10.60;52.70;;;;;;4968176;28;20392;-81
2023/02/03 12:08:04;;;;;;;0.40;0.40;;;10.60;52.10;;;;;;4971576;28;20273;-79
2023/02/03 12:10:44;;;;;;;0.55;0.40;;;10.40;51.40;;;;;;4970133;28;20319;-79
2023/02/03 12:13:30;;;;;;;0.40;0.40;;;10.40;51.70;;;;;;4969011;28;20604;-81
2023/02/03 12:16:33;;;;;;;1.17;0.60;;;9.90;51.80;;;;;;4971340;28;21153;-83
2023/02/03 12:19:24;;;;;;;0.38;0.38;;;8.90;53.10;;;;;;4969397;28;21456;-83
2023/02/03 12:22:03;;;;;;;0.45;0.40;;;8.10;54.10;;;;;;4967924;28;20232;-83
2023/02/03 12:24:47;;;;;;;0.40;0.40;;;7.20;54.50;;;;;;4972874;28;20398;-83
2023/02/03 12:27:22;;;;;;;0.43;0.43;;;6.70;55.10;;;;;;4962148;28;20604;-81
2023/02/03 12:30:06;;;;;;;0.27;0.27;;;6.50;56.40;;;;;;4970920;28;20196;-81
2023/02/03 12:32:45;;;;;;;0.32;0.32;;;6.70;56.90;;;;;;4973470;28;20228;-79
2023/02/03 12:35:20;;;;;;;0.30;0.30;;;6.90;56.40;;;;;;4967471;28;20688;-79
2023/02/03 12:38:16;;;;;;;0.47;0.47;;;6.80;56.50;;;;;;5019876;28;20185;-78
2023/02/03 12:40:51;;;;;;;0.87;0.40;;;6.60;57.00;;;;;;5006052;28;20209;-79
2023/02/03 12:43:41;;;;;;;0.30;0.30;;;6.20;57.80;;;;;;5006274;28;20200;-78
2023/02/03 12:46:34;;;;;;;0.60;0.37;;;6.00;58.90;;;;;;5005897;28;20191;-80
2023/02/03 12:49:28;;;;;;;0.30;0.30;;;5.90;59.10;;;;;;5005567;28;20647;-77
2023/02/03 12:52:16;;;;;;;0.47;0.47;;;5.70;59.80;;;;;;4987874;28;20209;-79
2023/02/03 12:55:05;;;;;;;0.20;0.20;;;5.70;60.60;;;;;;4978228;28;20209;-78
2023/02/03 12:57:43;;;;;;;0.30;0.30;;;6.00;60.90;;;;;;4998850;28;20200;-80
2023/02/03 13:00:17;;;;;;;0.40;0.33;;;6.70;60.00;;;;;;4995207;28;20256;-79
2023/02/03 13:03:19;;;;;;;0.40;0.40;;;7.20;58.60;;;;;;4991860;28;20212;-80
2023/02/03 13:06:12;;;;;;;0.80;0.80;;;7.50;57.80;;;;;;4989307;28;21393;-79
2023/02/03 13:08:42;;;;;;;0.87;0.70;;;7.50;58.30;;;;;;4990575;28;20204;-81
2023/02/03 13:11:33;;;;;;;6.10;0.60;;;7.70;58.80;;;;;;4996679;28;20205;-81
2023/02/03 13:14:21;;;;;;;0.80;0.80;;;8.10;58.80;;;;;;4995576;28;20816;-82
2023/02/03 13:16:52;;;;;;;0.70;0.70;;;8.60;58.20;;;;;;5003950;28;20192;-80
2023/02/03 13:19:21;;;;;;;0.63;0.63;;;8.70;57.70;;;;;;5005732;28;20314;-79